createdAt,value
2023-01-22T00:01:26.780Z,2.15
2023-01-22T00:04:29.449Z,2.21
2023-01-22T00:07:33.436Z,2.22
2023-01-22T00:10:37.425Z,2.27
2023-01-22T00:13:43.183Z,2.27
2023-01-22T00:16:48.013Z,2.38
2023-01-22T00:19:50.909Z,2.22
2023-01-22T00:22:56.069Z,2.19
2023-01-22T00:26:04.740Z,2.23
2023-01-22T00:29:07.546Z,2.18
2023-01-22T00:32:20.600Z,2.22
2023-01-22T00:35:26.160Z,2.23
2023-01-22T00:38:28.830Z,2.28
2023-01-22T00:41:34.232Z,2.33
2023-01-22T00:44:36.883Z,2.36
2023-01-22T00:47:39.907Z,2.36
2023-01-22T00:50:42.611Z,2.38
2023-01-22T00:53:45.349Z,2.33
2023-01-22T00:56:49.344Z,2.35
2023-01-22T00:59:53.241Z,2.33
2023-01-22T01:03:22.001Z,2.28
2023-01-22T01:06:25.851Z,2.34
2023-01-22T01:09:28.504Z,2.41
2023-01-22T01:12:32.557Z,2.31
2023-01-22T01:15:35.287Z,2.24
2023-01-22T01:18:38.315Z,2.24
2023-01-22T01:21:41.077Z,2.32
2023-01-22T01:24:46.291Z,2.25
2023-01-22T01:27:53.331Z,2.25
2023-01-22T01:30:57.055Z,2.23
2023-01-22T01:33:59.852Z,2.11
2023-01-22T01:37:02.599Z,2.23
2023-01-22T01:40:14.985Z,2.25
2023-01-22T01:43:19.229Z,2.28
2023-01-22T01:46:25.171Z,2.41
2023-01-22T01:49:32.481Z,2.23
2023-01-22T01:52:42.443Z,2.24
2023-01-22T01:55:46.117Z,2.18
2023-01-22T01:58:58.258Z,2.30
2023-01-22T02:02:03.505Z,2.30
2023-01-22T02:05:07.643Z,2.19
2023-01-22T02:08:10.863Z,2.18
2023-01-22T02:11:14.276Z,2.24
2023-01-22T02:14:22.450Z,2.17
2023-01-22T02:17:25.121Z,2.18
2023-01-22T02:20:27.826Z,2.33
2023-01-22T02:23:33.096Z,2.29
2023-01-22T02:26:36.048Z,2.20
2023-01-22T02:29:39.356Z,2.30
2023-01-22T02:32:42.953Z,2.43
2023-01-22T02:35:45.943Z,2.42
2023-01-22T02:38:50.020Z,2.34
2023-01-22T02:41:52.906Z,2.35
2023-01-22T02:44:55.593Z,2.12
2023-01-22T02:47:58.281Z,2.13
2023-01-22T02:51:01.071Z,2.25
2023-01-22T02:54:05.570Z,2.21
2023-01-22T02:57:08.276Z,2.17
2023-01-22T03:00:12.481Z,2.24
2023-01-22T03:03:16.331Z,2.23
2023-01-22T03:06:21.551Z,2.19
2023-01-22T03:09:25.837Z,2.26
2023-01-22T03:12:29.249Z,2.32
2023-01-22T03:15:49.880Z,2.35
2023-01-22T03:19:10.141Z,2.33
2023-01-22T03:22:14.144Z,2.38
2023-01-22T03:25:18.422Z,2.35
2023-01-22T03:28:21.056Z,2.38
2023-01-22T03:31:23.852Z,2.37
2023-01-22T03:34:27.431Z,2.43
2023-01-22T03:37:36.199Z,2.50
2023-01-22T03:40:40.186Z,2.45
2023-01-22T03:43:43.181Z,2.43
2023-01-22T03:46:46.161Z,2.36
2023-01-22T03:49:50.969Z,2.40
2023-01-22T03:52:53.850Z,2.42
2023-01-22T03:56:03.051Z,2.41
2023-01-22T03:59:05.738Z,2.44
2023-01-22T04:02:15.017Z,2.48
2023-01-22T04:05:31.647Z,2.51
2023-01-22T04:08:36.535Z,2.47
2023-01-22T04:11:42.331Z,2.47
2023-01-22T04:14:45.171Z,2.47
2023-01-22T04:17:47.835Z,2.49
2023-01-22T04:20:51.192Z,2.50
2023-01-22T04:23:57.902Z,2.52
2023-01-22T04:27:21.873Z,2.53
2023-01-22T04:30:24.843Z,2.51
2023-01-22T04:33:27.772Z,2.54
2023-01-22T04:36:30.485Z,2.50
2023-01-22T04:39:33.188Z,2.51
2023-01-22T04:42:39.814Z,2.50
2023-01-22T04:45:42.525Z,2.52
2023-01-22T04:48:46.524Z,2.53
2023-01-22T04:52:01.958Z,2.55
2023-01-22T04:55:05.262Z,2.59
2023-01-22T04:58:09.775Z,2.64
2023-01-22T05:01:12.408Z,2.57
2023-01-22T05:04:15.599Z,2.52
2023-01-22T05:07:18.348Z,2.59
2023-01-22T05:10:21.795Z,2.58
2023-01-22T05:13:25.769Z,2.62
2023-01-22T05:16:28.413Z,2.63
2023-01-22T05:19:31.038Z,2.55
2023-01-22T05:22:33.793Z,2.56
2023-01-22T05:25:36.469Z,2.56
2023-01-22T05:28:40.471Z,2.61
2023-01-22T05:31:43.174Z,2.62
2023-01-22T05:34:45.954Z,2.61
2023-01-22T05:37:58.186Z,2.61
2023-01-22T05:41:00.815Z,2.63
2023-01-22T05:44:05.679Z,2.63
2023-01-22T05:47:09.131Z,2.64
2023-01-22T05:50:12.224Z,2.66
2023-01-22T05:53:22.277Z,2.67
2023-01-22T05:56:32.361Z,2.72
2023-01-22T05:59:36.426Z,2.71
2023-01-22T06:02:39.189Z,2.70
2023-01-22T06:05:41.963Z,2.71
2023-01-22T06:08:44.657Z,2.72
2023-01-22T06:11:55.667Z,2.71
2023-01-22T06:15:01.809Z,2.74
2023-01-22T06:18:05.013Z,2.71
2023-01-22T06:21:09.327Z,2.69
2023-01-22T06:24:12.228Z,2.71
2023-01-22T06:27:16.139Z,2.69
2023-01-22T06:30:23.285Z,2.70
2023-01-22T06:33:26.023Z,2.72
2023-01-22T06:36:29.185Z,2.78
2023-01-22T06:39:31.845Z,2.78
2023-01-22T06:42:37.133Z,2.78
2023-01-22T06:45:43.301Z,2.55
2023-01-22T06:48:49.973Z,2.63
2023-01-22T06:51:52.945Z,2.65
2023-01-22T06:54:57.921Z,2.66
2023-01-22T06:58:00.595Z,2.69
2023-01-22T07:01:07.473Z,2.69
2023-01-22T07:04:10.820Z,2.61
2023-01-22T07:07:14.111Z,2.74
2023-01-22T07:10:19.780Z,2.76
2023-01-22T07:13:23.054Z,2.78
2023-01-22T07:16:27.048Z,2.78
2023-01-22T07:19:29.728Z,2.81
2023-01-22T07:22:32.667Z,2.87
2023-01-22T07:25:38.454Z,2.89
2023-01-22T07:28:41.221Z,2.91
2023-01-22T07:31:45.907Z,2.86
2023-01-22T07:34:49.899Z,2.98
2023-01-22T07:37:53.633Z,3.00
2023-01-22T07:41:01.956Z,3.05
2023-01-22T07:44:12.594Z,3.08
2023-01-22T07:47:16.583Z,3.10
2023-01-22T07:50:19.667Z,3.16
2023-01-22T07:53:22.492Z,3.24
2023-01-22T07:56:25.479Z,3.32
2023-01-22T07:59:28.123Z,3.39
2023-01-22T08:02:32.154Z,3.44
2023-01-22T08:05:34.839Z,3.49
2023-01-22T08:08:37.636Z,3.53
2023-01-22T08:11:40.280Z,3.57
2023-01-22T08:14:42.909Z,3.62
2023-01-22T08:17:49.752Z,3.67
2023-01-22T08:20:53.031Z,3.74
2023-01-22T08:23:55.665Z,3.80
2023-01-22T08:26:58.390Z,3.89
2023-01-22T08:30:01.020Z,3.99
2023-01-22T08:33:05.093Z,4.10
2023-01-22T08:36:08.797Z,4.30
2023-01-22T08:39:11.732Z,4.43
2023-01-22T08:42:16.682Z,4.52
2023-01-22T08:45:19.805Z,4.55
2023-01-22T08:48:23.820Z,4.56
2023-01-22T08:51:26.756Z,4.54
2023-01-22T08:54:29.512Z,4.53
2023-01-22T08:57:35.177Z,4.55
2023-01-22T09:00:38.757Z,4.53
2023-01-22T09:03:43.123Z,4.49
2023-01-22T09:06:53.025Z,4.46
2023-01-22T09:09:55.660Z,4.45
2023-01-22T09:13:00.248Z,4.48
2023-01-22T09:16:03.529Z,4.48
2023-01-22T09:19:09.071Z,4.47
2023-01-22T09:22:11.743Z,4.44
2023-01-22T09:25:14.898Z,4.38
2023-01-22T09:28:18.037Z,4.36
2023-01-22T09:31:20.806Z,4.48
2023-01-22T09:34:24.919Z,4.46
2023-01-22T09:37:53.073Z,4.44
2023-01-22T09:40:58.662Z,4.47
2023-01-22T09:44:05.854Z,4.53
2023-01-22T09:47:13.757Z,4.58
2023-01-22T09:50:22.658Z,4.67
2023-01-22T09:53:27.354Z,4.83
2023-01-22T09:56:36.774Z,4.93
2023-01-22T09:59:46.518Z,5.02
2023-01-22T10:02:53.711Z,5.06
2023-01-22T10:06:02.097Z,5.10
2023-01-22T10:09:14.102Z,5.12
2023-01-22T10:12:16.861Z,5.26
2023-01-22T10:15:23.659Z,5.34
2023-01-22T10:18:32.377Z,5.49
2023-01-22T10:21:42.724Z,5.63
2023-01-22T10:24:45.358Z,5.74
2023-01-22T10:27:58.740Z,5.83
2023-01-22T10:31:01.461Z,5.88
2023-01-22T10:34:11.302Z,5.91
2023-01-22T10:37:17.753Z,5.95
2023-01-22T10:40:27.089Z,5.95
2023-01-22T10:43:34.805Z,5.96
2023-01-22T10:46:37.463Z,5.85
2023-01-22T10:49:40.160Z,5.85
2023-01-22T10:52:49.065Z,5.90
2023-01-22T10:55:54.740Z,5.87
2023-01-22T10:58:59.392Z,5.83
2023-01-22T11:02:04.149Z,5.77
2023-01-22T11:05:18.568Z,5.72
2023-01-22T11:08:30.870Z,5.68
2023-01-22T11:11:37.856Z,5.69
2023-01-22T11:14:40.965Z,5.72
2023-01-22T11:17:49.518Z,5.69
2023-01-22T11:21:00.681Z,5.64
2023-01-22T11:24:15.726Z,5.60
2023-01-22T11:27:51.852Z,5.56
2023-01-22T11:31:23.207Z,5.52
2023-01-22T11:34:53.652Z,5.54
2023-01-22T11:38:10.881Z,5.58
2023-01-22T11:41:27.376Z,5.62
2023-01-22T11:44:59.303Z,5.70
2023-01-22T11:48:17.353Z,5.85
2023-01-22T11:51:34.637Z,5.89
2023-01-22T11:54:53.691Z,5.92
2023-01-22T11:58:07.086Z,5.91
2023-01-22T12:01:18.267Z,5.91
2023-01-22T12:04:37.410Z,5.89
2023-01-22T12:08:00.852Z,5.86
2023-01-22T12:11:26.484Z,5.72
2023-01-22T12:14:57.649Z,5.68
2023-01-22T12:18:35.104Z,5.72
2023-01-22T12:21:49.819Z,5.80
2023-01-22T12:24:59.889Z,5.89
2023-01-22T12:28:13.112Z,5.88
2023-01-22T12:31:25.342Z,5.90
2023-01-22T12:34:33.277Z,5.96
2023-01-22T12:37:43.234Z,5.96
2023-01-22T12:41:09.165Z,5.93
2023-01-22T12:44:20.486Z,5.92
2023-01-22T12:47:38.326Z,5.76
2023-01-22T12:50:51.020Z,5.70
2023-01-22T12:53:53.736Z,5.67
2023-01-22T12:57:11.041Z,5.56
2023-01-22T13:00:34.696Z,5.42
2023-01-22T13:03:42.822Z,5.28
2023-01-22T13:06:46.291Z,5.42
2023-01-22T13:09:49.825Z,5.46
2023-01-22T13:12:55.021Z,5.54
2023-01-22T13:16:02.873Z,5.65
2023-01-22T13:19:21.409Z,5.64
2023-01-22T13:22:27.767Z,5.52
2023-01-22T13:25:33.235Z,5.66
2023-01-22T13:28:35.928Z,5.70
2023-01-22T13:31:38.916Z,5.74
2023-01-22T13:35:09.014Z,5.70
2023-01-22T13:38:25.640Z,5.76
2023-01-22T13:41:32.318Z,5.75
2023-01-22T13:44:41.005Z,5.80
2023-01-22T13:47:43.721Z,5.81
2023-01-22T13:50:53.909Z,5.83
2023-01-22T13:53:56.926Z,5.88
2023-01-22T13:56:59.730Z,5.85
2023-01-22T14:00:04.527Z,5.78
2023-01-22T14:03:21.963Z,5.66
2023-01-22T14:06:26.007Z,5.62
2023-01-22T14:09:31.615Z,5.56
2023-01-22T14:12:34.292Z,5.49
2023-01-22T14:15:37.791Z,5.46
2023-01-22T14:18:42.923Z,5.45
2023-01-22T14:21:48.746Z,5.35
2023-01-22T14:24:52.897Z,5.33
2023-01-22T14:28:00.957Z,5.29
2023-01-22T14:31:04.140Z,5.27
2023-01-22T14:34:07.117Z,5.27
2023-01-22T14:37:11.106Z,5.24
2023-01-22T14:40:15.654Z,5.22
2023-01-22T14:43:18.937Z,5.24
2023-01-22T14:46:24.613Z,5.21
2023-01-22T14:49:27.303Z,5.24
2023-01-22T14:52:31.255Z,5.26
2023-01-22T14:55:34.228Z,5.24
2023-01-22T14:58:37.284Z,5.25
2023-01-22T15:01:40.193Z,5.24
2023-01-22T15:04:43.730Z,5.22
2023-01-22T15:07:47.739Z,5.20
2023-01-22T15:10:51.480Z,5.16
2023-01-22T15:13:55.537Z,5.15
2023-01-22T15:17:01.019Z,5.16
2023-01-22T15:20:13.201Z,5.15
2023-01-22T15:23:17.185Z,5.11
2023-01-22T15:26:28.783Z,5.09
2023-01-22T15:29:33.400Z,5.07
2023-01-22T15:32:36.165Z,4.94
2023-01-22T15:35:38.892Z,4.98
2023-01-22T15:38:42.935Z,4.94
2023-01-22T15:41:45.997Z,4.93
2023-01-22T15:44:50.842Z,4.90
2023-01-22T15:47:55.494Z,4.88
2023-01-22T15:51:12.351Z,4.87
2023-01-22T15:54:17.480Z,4.85
2023-01-22T15:57:23.227Z,4.84
2023-01-22T16:00:28.011Z,4.74
2023-01-22T16:03:32.886Z,4.67
2023-01-22T16:06:38.662Z,4.59
2023-01-22T16:09:45.239Z,4.54
2023-01-22T16:12:47.931Z,4.48
2023-01-22T16:15:58.054Z,4.48
2023-01-22T16:19:02.533Z,4.50
2023-01-22T16:22:05.534Z,4.49
2023-01-22T16:25:10.525Z,4.46
2023-01-22T16:28:13.188Z,4.50
2023-01-22T16:31:21.102Z,4.49
2023-01-22T16:34:27.132Z,4.53
2023-01-22T16:37:29.850Z,4.54
2023-01-22T16:40:36.901Z,4.55
2023-01-22T16:43:39.571Z,4.51
2023-01-22T16:46:43.755Z,4.49
2023-01-22T16:49:46.450Z,4.49
2023-01-22T16:52:49.190Z,4.52
2023-01-22T16:55:57.093Z,4.52
2023-01-22T16:59:00.002Z,4.49
2023-01-22T17:02:06.405Z,4.50
2023-01-22T17:05:12.932Z,4.49
2023-01-22T17:08:16.014Z,4.45
2023-01-22T17:11:20.543Z,4.49
2023-01-22T17:14:26.844Z,4.46
2023-01-22T17:17:29.546Z,4.43
2023-01-22T17:20:32.465Z,4.40
2023-01-22T17:23:35.419Z,4.41
2023-01-22T17:26:40.042Z,4.43
2023-01-22T17:29:42.724Z,4.45
2023-01-22T17:32:47.587Z,4.42
2023-01-22T17:35:50.703Z,4.50
2023-01-22T17:38:53.596Z,4.50
2023-01-22T17:41:59.980Z,4.51
2023-01-22T17:45:03.734Z,4.53
2023-01-22T17:48:09.453Z,4.53
2023-01-22T17:51:13.730Z,4.55
2023-01-22T17:54:19.536Z,4.52
2023-01-22T17:57:23.566Z,4.52
2023-01-22T18:00:26.441Z,4.53
2023-01-22T18:03:38.691Z,4.52
2023-01-22T18:06:45.452Z,4.50
2023-01-22T18:09:48.150Z,4.48
2023-01-22T18:12:54.384Z,4.47
2023-01-22T18:15:58.828Z,4.45
2023-01-22T18:19:05.217Z,4.40
2023-01-22T18:22:07.888Z,4.31
2023-01-22T18:25:20.043Z,4.31
2023-01-22T18:28:26.071Z,4.32
2023-01-22T18:31:30.387Z,4.31
2023-01-22T18:34:33.903Z,4.31
2023-01-22T18:37:38.259Z,4.31
2023-01-22T18:40:41.453Z,4.33
2023-01-22T18:43:48.263Z,4.34
2023-01-22T18:46:52.311Z,4.38
2023-01-22T18:49:55.032Z,4.40
2023-01-22T18:52:57.777Z,4.35
2023-01-22T18:56:08.470Z,4.29
2023-01-22T18:59:13.132Z,4.28
2023-01-22T19:02:17.551Z,4.29
2023-01-22T19:05:24.750Z,4.22
2023-01-22T19:08:30.686Z,4.20
2023-01-22T19:11:35.868Z,4.17
2023-01-22T19:14:49.054Z,4.02
2023-01-22T19:18:12.847Z,3.97
2023-01-22T19:21:17.788Z,4.02
2023-01-22T19:24:24.851Z,4.07
2023-01-22T19:27:27.561Z,4.06
2023-01-22T19:30:33.832Z,3.99
2023-01-22T19:33:36.517Z,3.98
2023-01-22T19:36:40.259Z,4.00
2023-01-22T19:39:42.888Z,4.04
2023-01-22T19:42:46.845Z,4.01
2023-01-22T19:45:50.846Z,3.98
2023-01-22T19:48:53.612Z,3.94
2023-01-22T19:51:56.683Z,4.00
2023-01-22T19:54:59.381Z,4.00
2023-01-22T19:58:02.091Z,3.96
2023-01-22T20:01:11.203Z,3.90
2023-01-22T20:04:20.634Z,3.89
2023-01-22T20:07:25.132Z,3.96
2023-01-22T20:10:27.850Z,3.98
2023-01-22T20:13:31.007Z,4.03
2023-01-22T20:16:35.053Z,4.08
2023-01-22T20:19:39.385Z,4.09
2023-01-22T20:22:42.029Z,4.12
2023-01-22T20:25:44.726Z,4.09
2023-01-22T20:28:48.101Z,4.06
2023-01-22T20:31:53.325Z,4.03
2023-01-22T20:34:56.002Z,4.06
2023-01-22T20:37:58.819Z,4.07
2023-01-22T20:41:04.486Z,4.11
2023-01-22T20:44:07.209Z,4.10
2023-01-22T20:47:11.635Z,4.09
2023-01-22T20:50:14.298Z,4.14
2023-01-22T20:53:18.455Z,4.19
2023-01-22T20:56:23.281Z,4.19
2023-01-22T20:59:29.026Z,4.21
2023-01-22T21:02:33.025Z,4.22
2023-01-22T21:05:39.667Z,4.24
2023-01-22T21:08:43.453Z,4.26
2023-01-22T21:11:46.152Z,4.25
2023-01-22T21:14:49.213Z,4.23
2023-01-22T21:17:54.679Z,4.21
2023-01-22T21:20:57.778Z,4.20
2023-01-22T21:24:01.004Z,4.19
2023-01-22T21:27:04.972Z,4.15
2023-01-22T21:30:09.221Z,4.16
2023-01-22T21:33:17.582Z,4.18
2023-01-22T21:36:22.364Z,4.08
2023-01-22T21:39:28.214Z,4.04
2023-01-22T21:42:48.447Z,4.02
2023-01-22T21:46:08.805Z,3.89
2023-01-22T21:49:19.928Z,3.87
2023-01-22T21:52:22.689Z,3.84
2023-01-22T21:55:25.458Z,3.83
2023-01-22T21:58:28.342Z,3.76
2023-01-22T22:01:32.246Z,3.76
2023-01-22T22:04:36.428Z,3.64
2023-01-22T22:07:39.131Z,3.57
2023-01-22T22:10:41.803Z,3.56
2023-01-22T22:13:44.544Z,3.55
2023-01-22T22:16:48.239Z,3.47
2023-01-22T22:20:03.533Z,3.43
2023-01-22T22:23:06.269Z,3.40
2023-01-22T22:26:11.964Z,3.35
2023-01-22T22:29:14.615Z,3.36
2023-01-22T22:32:17.270Z,3.32
2023-01-22T22:35:21.337Z,3.37
2023-01-22T22:38:26.190Z,3.40
2023-01-22T22:41:31.570Z,3.45
2023-01-22T22:44:36.269Z,3.47
2023-01-22T22:47:38.995Z,3.36
2023-01-22T22:50:44.336Z,3.54
2023-01-22T22:53:52.299Z,3.59
2023-01-22T22:56:54.977Z,3.69
2023-01-22T22:59:57.724Z,3.61
2023-01-22T23:03:00.486Z,3.68
2023-01-22T23:06:08.285Z,3.68
2023-01-22T23:09:12.379Z,3.58
2023-01-22T23:12:15.008Z,3.55
2023-01-22T23:15:17.790Z,3.43
2023-01-22T23:18:20.440Z,3.40
2023-01-22T23:21:26.404Z,3.45
2023-01-22T23:24:29.740Z,3.48
2023-01-22T23:27:32.420Z,3.52
2023-01-22T23:30:35.726Z,3.53
2023-01-22T23:33:42.550Z,3.58
2023-01-22T23:36:48.310Z,3.58
2023-01-22T23:39:51.190Z,3.54
2023-01-22T23:42:53.850Z,3.56
2023-01-22T23:45:58.313Z,3.59
2023-01-22T23:49:01.005Z,3.60
2023-01-22T23:52:05.546Z,3.59
2023-01-22T23:55:08.870Z,3.54
2023-01-22T23:58:11.569Z,3.52
